Time;durP1;ratioP1;P1;durP2;ratioP2;P2;SDS_P1;SDS_P2;PMS_P1;PMS_P2;Temp;Humidity;BMP_temperature;BMP_pressure;BME280_temperature;BME280_humidity;BME280_pressure;Samples;Min_cycle;Max_cycle;Signal;HPM_P1;HPM_P2
2022/01/10 00:00:18;;;;;;;6.67;4.73;;;5.60;99.90;;;;;;5030531;28;20235;-76
2022/01/10 00:02:46;;;;;;;9.35;4.32;;;5.50;99.90;;;;;;5030878;28;20650;-76
2022/01/10 00:05:12;;;;;;;9.18;4.05;;;5.50;99.90;;;;;;5031829;28;20261;-76
2022/01/10 00:07:39;;;;;;;8.95;4.93;;;5.50;99.90;;;;;;5034514;28;20771;-76
2022/01/10 00:10:06;;;;;;;7.95;4.40;;;5.50;99.90;;;;;;5031525;28;20546;-76
2022/01/10 00:12:32;;;;;;;8.02;3.75;;;5.40;99.90;;;;;;5031805;28;20955;-76
2022/01/10 00:14:58;;;;;;;6.20;3.50;;;5.40;99.90;;;;;;5031699;28;20256;-76
2022/01/10 00:17:24;;;;;;;6.50;4.20;;;5.40;99.90;;;;;;5031679;28;20581;-76
2022/01/10 00:19:49;;;;;;;8.33;4.60;;;5.40;99.90;;;;;;5030108;28;20188;-76
2022/01/10 00:22:15;;;;;;;7.63;3.40;;;5.40;99.90;;;;;;5031845;28;20592;-76
2022/01/10 00:24:41;;;;;;;9.37;4.20;;;5.40;99.90;;;;;;5030260;28;20195;-76
2022/01/10 00:27:07;;;;;;;7.87;4.43;;;5.40;99.90;;;;;;5031749;28;20577;-76
2022/01/10 00:29:34;;;;;;;11.25;4.50;;;5.50;99.90;;;;;;5029584;28;20279;-76
2022/01/10 00:32:00;;;;;;;9.33;4.20;;;5.50;99.90;;;;;;5030432;28;20166;-76
2022/01/10 00:34:27;;;;;;;5.00;3.50;;;5.50;99.90;;;;;;5031546;28;20200;-76
2022/01/10 00:36:53;;;;;;;8.60;3.90;;;5.50;99.90;;;;;;5030351;28;20816;-76
2022/01/10 00:39:19;;;;;;;7.75;3.65;;;5.60;99.90;;;;;;5034130;28;20205;-76
2022/01/10 00:41:46;;;;;;;6.55;3.58;;;5.60;99.90;;;;;;5042818;28;20188;-76
2022/01/10 00:44:13;;;;;;;10.25;4.10;;;5.70;99.90;;;;;;5051916;28;20172;-76
2022/01/10 00:46:39;;;;;;;7.70;3.47;;;5.70;99.90;;;;;;5051663;28;20162;-76
2022/01/10 00:49:05;;;;;;;7.13;4.38;;;5.80;99.90;;;;;;5051342;28;20197;-76
2022/01/10 00:51:30;;;;;;;7.23;3.50;;;5.80;99.90;;;;;;5049747;28;20192;-75
2022/01/10 00:53:57;;;;;;;9.90;4.10;;;5.80;99.90;;;;;;5051260;28;20625;-76
2022/01/10 00:56:24;;;;;;;8.63;3.92;;;5.80;99.90;;;;;;5050114;28;20311;-76
2022/01/10 00:58:50;;;;;;;11.57;3.42;;;5.80;99.90;;;;;;5051063;28;20184;-76
2022/01/10 01:01:18;;;;;;;10.13;3.33;;;5.80;99.90;;;;;;5050814;28;20191;-76
2022/01/10 01:03:45;;;;;;;9.80;3.83;;;5.80;99.90;;;;;;5049986;28;20165;-76
2022/01/10 01:06:12;;;;;;;7.03;3.83;;;5.80;99.90;;;;;;5051260;28;20181;-77
2022/01/10 01:08:39;;;;;;;6.32;3.92;;;5.80;99.90;;;;;;5042442;28;20189;-76
2022/01/10 01:13:57;;;;;;;5.32;3.22;;;5.70;99.90;;;;;;5035396;28;20173;-76
2022/01/10 01:24:29;;;;;;;10.35;3.92;;;5.50;99.90;;;;;;5045242;28;20173;-76
2022/01/10 01:26:55;;;;;;;6.38;3.33;;;5.50;99.90;;;;;;5054600;28;20617;-76
2022/01/10 01:29:25;;;;;;;9.97;4.67;;;5.40;99.90;;;;;;5054348;28;20212;-76
2022/01/10 01:31:52;;;;;;;5.97;3.72;;;5.30;99.90;;;;;;5054418;28;20169;-76
2022/01/10 01:34:19;;;;;;;10.80;3.53;;;5.30;99.90;;;;;;5053347;28;20158;-76
2022/01/10 01:36:49;;;;;;;8.13;3.78;;;5.30;99.90;;;;;;5054623;28;20219;-76
2022/01/10 01:39:20;;;;;;;7.22;3.80;;;5.30;99.90;;;;;;5054272;28;20188;-76
2022/01/10 01:41:53;;;;;;;8.55;3.20;;;5.20;99.90;;;;;;5053029;28;20179;-76
2022/01/10 01:44:19;;;;;;;6.60;3.13;;;5.20;99.90;;;;;;5054418;28;20169;-76
2022/01/10 01:46:45;;;;;;;7.00;3.80;;;5.20;99.90;;;;;;5054465;28;20181;-76
2022/01/10 01:49:12;;;;;;;6.20;3.30;;;5.20;99.90;;;;;;5036275;28;20635;-76
2022/01/10 01:51:39;;;;;;;7.07;3.83;;;5.20;99.90;;;;;;5052847;28;20773;-76
2022/01/10 01:54:06;;;;;;;7.15;3.70;;;5.20;99.90;;;;;;5053080;28;20177;-76
2022/01/10 01:56:32;;;;;;;8.25;3.97;;;5.30;99.90;;;;;;5036598;28;20176;-76
2022/01/10 01:58:58;;;;;;;10.13;4.15;;;5.30;99.90;;;;;;5056548;28;20273;-76
2022/01/10 02:01:25;;;;;;;11.90;3.65;;;5.30;99.90;;;;;;5052659;28;20247;-76
2022/01/10 02:03:52;;;;;;;7.13;3.47;;;5.30;99.90;;;;;;5036594;28;20157;-76
2022/01/10 02:06:25;;;;;;;6.63;3.90;;;5.30;99.90;;;;;;5036293;28;20231;-76
2022/01/10 02:08:50;;;;;;;10.20;3.80;;;5.40;99.90;;;;;;5053747;28;20197;-76
2022/01/10 02:11:17;;;;;;;7.50;4.20;;;5.40;99.90;;;;;;5052623;28;20164;-75
2022/01/10 02:13:44;;;;;;;5.10;3.45;;;5.30;99.90;;;;;;5052903;28;20965;-76
2022/01/10 02:16:33;;;;;;;6.53;3.78;;;5.40;99.90;;;;;;5052666;28;20172;-76
2022/01/10 02:19:01;;;;;;;4.40;3.80;;;5.40;99.90;;;;;;5052572;28;20220;-76
2022/01/10 02:21:27;;;;;;;6.27;2.80;;;5.40;99.90;;;;;;5035641;28;20204;-76
2022/01/10 02:23:54;;;;;;;6.50;3.63;;;5.40;99.90;;;;;;5035752;28;20268;-76
2022/01/10 02:26:24;;;;;;;5.35;2.90;;;5.50;99.90;;;;;;5052382;28;20568;-76
2022/01/10 02:28:50;;;;;;;6.77;3.60;;;5.50;99.90;;;;;;5052018;28;20254;-76
2022/01/10 02:31:16;;;;;;;5.90;3.77;;;5.60;99.90;;;;;;5053243;28;20527;-76
2022/01/10 02:33:42;;;;;;;5.50;3.30;;;5.60;99.90;;;;;;5052482;28;20293;-76
2022/01/10 02:38:44;;;;;;;7.82;3.60;;;5.70;99.90;;;;;;5035346;28;20672;-75
2022/01/10 02:41:29;;;;;;;6.18;3.70;;;5.80;99.90;;;;;;5051856;28;20204;-76
2022/01/10 02:43:56;;;;;;;8.32;3.30;;;5.90;99.90;;;;;;5052141;28;20169;-76
2022/01/10 02:46:24;;;;;;;7.82;3.20;;;6.00;99.90;;;;;;5052125;28;20641;-76
2022/01/10 02:48:51;;;;;;;7.78;3.13;;;6.00;99.90;;;;;;5051787;28;20382;-76
2022/01/10 02:51:18;;;;;;;7.85;3.50;;;6.10;99.90;;;;;;5051487;28;20165;-76
2022/01/10 02:53:44;;;;;;;11.73;3.35;;;6.10;99.90;;;;;;5051629;28;20197;-76
2022/01/10 02:56:11;;;;;;;5.53;3.00;;;6.20;99.90;;;;;;5053077;28;20158;-76
2022/01/10 02:58:38;;;;;;;7.25;3.92;;;6.20;99.90;;;;;;5035402;28;20565;-76
2022/01/10 03:01:05;;;;;;;14.30;4.40;;;6.20;99.90;;;;;;5051481;28;20244;-75
2022/01/10 03:03:31;;;;;;;5.00;3.05;;;6.20;99.90;;;;;;5051654;28;20549;-76
2022/01/10 03:05:59;;;;;;;8.27;3.20;;;6.20;99.90;;;;;;5051754;28;20169;-75
2022/01/10 03:08:26;;;;;;;5.60;2.92;;;6.20;99.90;;;;;;5052754;28;20646;-76
2022/01/10 03:10:53;;;;;;;10.80;3.55;;;6.20;99.90;;;;;;5052444;28;20232;-73
2022/01/10 03:13:19;;;;;;;6.15;3.20;;;6.10;99.90;;;;;;5057459;28;20165;-74
2022/01/10 03:15:46;;;;;;;4.43;2.27;;;6.10;99.90;;;;;;5052725;28;20161;-74
2022/01/10 03:18:11;;;;;;;7.85;3.90;;;6.10;99.90;;;;;;5052701;28;20212;-74
2022/01/10 03:20:37;;;;;;;9.10;3.97;;;6.00;99.90;;;;;;5050979;28;20607;-74
2022/01/10 03:23:03;;;;;;;5.73;3.33;;;6.00;99.90;;;;;;5052582;28;20168;-74
2022/01/10 03:25:29;;;;;;;5.00;2.90;;;5.90;99.90;;;;;;5051457;28;20242;-74
2022/01/10 03:27:58;;;;;;;5.40;3.00;;;5.90;99.90;;;;;;5051104;28;20220;-74
2022/01/10 03:30:26;;;;;;;12.47;3.70;;;5.90;99.90;;;;;;5050938;28;20615;-74
2022/01/10 03:32:52;;;;;;;5.43;3.22;;;5.80;99.90;;;;;;5051273;28;20165;-74
2022/01/10 03:35:25;;;;;;;6.05;3.28;;;5.80;99.90;;;;;;5035648;28;20161;-74
2022/01/10 03:37:51;;;;;;;4.45;3.05;;;5.70;99.90;;;;;;5034368;28;20234;-74
2022/01/10 03:40:17;;;;;;;6.03;3.30;;;5.70;99.90;;;;;;5051504;28;20218;-74
2022/01/10 03:42:43;;;;;;;9.20;4.30;;;5.60;99.90;;;;;;5034111;28;20590;-74
2022/01/10 03:45:09;;;;;;;10.67;3.80;;;5.50;99.90;;;;;;5050918;28;20165;-74
2022/01/10 03:47:35;;;;;;;7.65;3.05;;;5.50;99.90;;;;;;5034531;28;20621;-74
2022/01/10 03:50:02;;;;;;;6.50;3.10;;;5.40;99.90;;;;;;5056604;28;20203;-73
2022/01/10 03:52:29;;;;;;;13.45;3.67;;;5.30;99.90;;;;;;5050995;28;20637;-74
2022/01/10 03:54:55;;;;;;;7.05;4.50;;;5.30;99.90;;;;;;5050865;28;20172;-74
2022/01/10 03:57:21;;;;;;;9.83;4.50;;;5.20;99.90;;;;;;5050953;28;20169;-74
2022/01/10 03:59:47;;;;;;;7.28;3.58;;;5.20;99.90;;;;;;5050382;28;20193;-74
2022/01/10 04:02:13;;;;;;;7.10;3.30;;;5.10;99.90;;;;;;5050930;28;20173;-74
2022/01/10 04:04:39;;;;;;;9.53;3.83;;;5.10;99.90;;;;;;5052472;28;20606;-74
2022/01/10 04:07:06;;;;;;;7.93;3.42;;;5.10;99.90;;;;;;5051510;28;20173;-74
2022/01/10 04:09:32;;;;;;;4.72;3.40;;;5.00;99.90;;;;;;5051466;28;20230;-74
2022/01/10 04:11:57;;;;;;;8.10;4.50;;;5.00;99.90;;;;;;5051581;28;20622;-74
2022/01/10 04:14:23;;;;;;;7.30;3.80;;;4.90;99.90;;;;;;5050860;28;20575;-75
2022/01/10 04:16:50;;;;;;;8.20;3.30;;;4.90;99.90;;;;;;5050849;28;20582;-74
2022/01/10 04:19:16;;;;;;;6.90;4.25;;;4.90;99.90;;;;;;5051106;28;20189;-74
2022/01/10 04:21:42;;;;;;;7.87;3.50;;;4.80;99.90;;;;;;5050757;28;20675;-74
2022/01/10 04:24:07;;;;;;;7.03;3.83;;;4.80;99.90;;;;;;5051190;28;20942;-74
2022/01/10 04:26:34;;;;;;;7.20;3.85;;;4.70;99.90;;;;;;5054594;28;20563;-74
2022/01/10 04:29:00;;;;;;;5.97;3.85;;;4.70;99.90;;;;;;5050600;28;20287;-74
2022/01/10 04:31:26;;;;;;;5.38;3.85;;;4.70;99.90;;;;;;5050080;28;20169;-74
2022/01/10 04:33:52;;;;;;;6.97;4.00;;;4.60;99.90;;;;;;5050643;28;20187;-74
2022/01/10 04:36:18;;;;;;;7.33;3.77;;;4.60;99.90;;;;;;5051599;28;20618;-74
2022/01/10 04:38:44;;;;;;;8.73;3.30;;;4.60;99.90;;;;;;5051346;28;20189;-74
2022/01/10 04:41:12;;;;;;;6.05;3.72;;;4.50;99.90;;;;;;5049946;28;20783;-74
2022/01/10 04:43:38;;;;;;;9.30;3.53;;;4.50;99.90;;;;;;5050241;28;20165;-74
2022/01/10 04:46:06;;;;;;;7.35;4.28;;;4.40;99.90;;;;;;5033673;28;20715;-74
2022/01/10 04:48:32;;;;;;;6.63;3.80;;;4.40;99.90;;;;;;5050281;28;20259;-74
2022/01/10 04:51:12;;;;;;;6.22;3.80;;;4.40;99.90;;;;;;5033280;28;20615;-74
2022/01/10 04:53:44;;;;;;;5.85;4.45;;;4.30;99.90;;;;;;5054010;28;20227;-74
2022/01/10 04:56:11;;;;;;;9.65;3.38;;;4.30;99.90;;;;;;5054177;28;20955;-74
2022/01/10 04:58:37;;;;;;;7.40;3.47;;;4.30;99.90;;;;;;5054115;28;20254;-74
2022/01/10 05:01:04;;;;;;;5.38;3.33;;;4.30;99.90;;;;;;5053823;28;20593;-75
2022/01/10 05:03:31;;;;;;;5.82;3.85;;;4.20;99.90;;;;;;5039630;28;20230;-74
2022/01/10 05:05:58;;;;;;;6.05;3.30;;;4.20;99.90;;;;;;5054092;28;20184;-74
2022/01/10 05:08:25;;;;;;;6.80;3.58;;;4.20;99.90;;;;;;5053976;28;20197;-75
2022/01/10 05:10:53;;;;;;;5.40;3.35;;;4.20;99.90;;;;;;5053647;28;20196;-74
2022/01/10 05:13:20;;;;;;;6.70;3.63;;;4.10;99.90;;;;;;5037802;28;20177;-74
2022/01/10 05:15:47;;;;;;;8.57;4.65;;;4.10;99.90;;;;;;5055052;28;20169;-74
2022/01/10 05:18:14;;;;;;;5.93;4.78;;;4.10;99.90;;;;;;5059200;28;20244;-74
2022/01/10 05:20:40;;;;;;;7.45;4.10;;;4.10;99.90;;;;;;5058941;28;20529;-75
2022/01/10 05:23:07;;;;;;;5.47;3.23;;;4.10;99.90;;;;;;5058367;28;20200;-74
2022/01/10 05:25:36;;;;;;;5.25;3.40;;;4.10;99.90;;;;;;5059551;28;20947;-75
2022/01/10 05:28:05;;;;;;;9.35;4.55;;;4.10;99.90;;;;;;5057916;28;20311;-74
2022/01/10 05:30:31;;;;;;;7.63;3.50;;;4.10;99.90;;;;;;5059336;28;20212;-74
2022/01/10 05:32:57;;;;;;;6.95;4.30;;;4.10;99.90;;;;;;5055209;28;20169;-75
2022/01/10 05:35:31;;;;;;;6.63;3.80;;;4.10;99.90;;;;;;5054274;28;20150;-74
2022/01/10 05:37:57;;;;;;;11.25;4.40;;;4.20;99.90;;;;;;5054965;28;20589;-74
2022/01/10 05:40:23;;;;;;;11.23;4.10;;;4.20;99.90;;;;;;5054260;28;20234;-74
2022/01/10 05:42:48;;;;;;;6.97;3.40;;;4.30;99.90;;;;;;5055868;28;20567;-74
2022/01/10 05:45:15;;;;;;;7.05;3.80;;;4.30;99.90;;;;;;5053644;28;20181;-74
2022/01/10 05:47:43;;;;;;;6.68;3.55;;;4.40;99.90;;;;;;5053268;28;20698;-74
2022/01/10 05:50:13;;;;;;;6.85;3.45;;;4.50;99.90;;;;;;5052978;28;20207;-74
2022/01/10 05:52:44;;;;;;;7.20;4.35;;;4.60;99.90;;;;;;5053271;28;20479;-74
2022/01/10 05:55:11;;;;;;;8.27;3.33;;;4.70;99.90;;;;;;5053044;28;20188;-74
2022/01/10 05:57:40;;;;;;;6.90;3.53;;;4.80;99.90;;;;;;5052915;28;20177;-75
2022/01/10 06:00:06;;;;;;;6.37;3.10;;;4.90;99.90;;;;;;5052829;28;20523;-75
2022/01/10 06:02:40;;;;;;;9.25;4.30;;;4.90;99.90;;;;;;5054072;28;20164;-74
2022/01/10 06:05:09;;;;;;;5.28;3.35;;;5.00;99.90;;;;;;5052057;28;20196;-74
2022/01/10 06:07:42;;;;;;;6.25;3.28;;;5.10;99.90;;;;;;5052711;28;20531;-74
2022/01/10 06:10:09;;;;;;;10.38;3.28;;;5.20;99.90;;;;;;5052442;28;20195;-74
2022/01/10 06:12:34;;;;;;;6.95;3.40;;;5.20;99.90;;;;;;5052874;28;20531;-75
2022/01/10 06:15:00;;;;;;;5.50;3.57;;;5.30;99.90;;;;;;5052622;28;20183;-74
2022/01/10 06:17:27;;;;;;;6.70;3.80;;;5.30;99.90;;;;;;5052756;28;20180;-74
2022/01/10 06:19:53;;;;;;;5.32;3.40;;;5.40;99.90;;;;;;5052280;28;20961;-75
2022/01/10 06:22:19;;;;;;;7.43;3.40;;;5.40;99.90;;;;;;5052592;28;20187;-74
2022/01/10 06:24:46;;;;;;;5.70;3.80;;;5.50;99.90;;;;;;5052243;28;20199;-75
2022/01/10 06:27:12;;;;;;;8.00;3.93;;;5.60;99.90;;;;;;5052311;28;20173;-75
2022/01/10 06:29:39;;;;;;;7.50;3.70;;;5.60;99.90;;;;;;5051853;28;20670;-75
2022/01/10 06:32:05;;;;;;;5.60;3.28;;;5.70;99.90;;;;;;5052326;28;20173;-75
2022/01/10 06:34:31;;;;;;;6.93;3.33;;;5.70;99.90;;;;;;5052238;28;20165;-75
2022/01/10 06:36:59;;;;;;;7.50;3.87;;;5.70;99.90;;;;;;5052152;28;20177;-73
2022/01/10 06:39:25;;;;;;;6.95;4.50;;;5.70;99.90;;;;;;5052125;28;20602;-76
2022/01/10 06:41:51;;;;;;;11.02;5.00;;;5.70;99.90;;;;;;5035340;28;20169;-75
2022/01/10 06:44:18;;;;;;;4.68;3.58;;;5.60;99.90;;;;;;5051970;28;20215;-75
2022/01/10 06:46:45;;;;;;;10.32;3.50;;;5.60;99.90;;;;;;5052234;28;20194;-74
2022/01/10 06:49:12;;;;;;;10.73;4.40;;;5.60;99.90;;;;;;5051820;28;20232;-74
2022/01/10 06:51:38;;;;;;;7.43;3.93;;;5.60;99.90;;;;;;5052867;28;20255;-74
2022/01/10 06:54:03;;;;;;;4.13;3.27;;;5.70;99.90;;;;;;5035425;28;20657;-75
2022/01/10 06:56:30;;;;;;;8.75;4.40;;;5.70;99.90;;;;;;5052069;28;20565;-74
2022/01/10 06:58:57;;;;;;;5.97;3.53;;;5.70;99.90;;;;;;5051543;28;20193;-74
2022/01/10 07:01:31;;;;;;;9.60;4.80;;;5.70;99.90;;;;;;5051511;28;20235;-75
2022/01/10 07:03:59;;;;;;;5.20;3.60;;;5.70;99.90;;;;;;5051801;28;20175;-74
2022/01/10 07:06:25;;;;;;;6.38;4.38;;;5.70;99.90;;;;;;5051869;28;20256;-75
2022/01/10 07:08:53;;;;;;;6.78;3.35;;;5.60;99.90;;;;;;5051607;28;20628;-74
2022/01/10 07:11:25;;;;;;;7.15;3.47;;;5.60;99.90;;;;;;5051769;28;20188;-75
2022/01/10 07:13:52;;;;;;;6.70;4.07;;;5.50;99.90;;;;;;5052935;28;20216;-74
2022/01/10 07:16:20;;;;;;;6.53;4.13;;;5.50;99.90;;;;;;5050485;28;20576;-76
2022/01/10 07:18:50;;;;;;;6.85;4.43;;;5.40;99.90;;;;;;5051371;28;20192;-75
2022/01/10 07:21:24;;;;;;;8.90;3.65;;;5.40;99.90;;;;;;5050981;28;20171;-75
2022/01/10 07:23:50;;;;;;;6.75;4.70;;;5.40;99.90;;;;;;5034578;28;20179;-76
2022/01/10 07:26:16;;;;;;;8.97;3.80;;;5.30;99.90;;;;;;5052449;28;20165;-75
2022/01/10 07:28:43;;;;;;;7.35;3.65;;;5.30;99.90;;;;;;5035842;28;20209;-75
2022/01/10 07:31:09;;;;;;;9.93;5.93;;;5.30;99.90;;;;;;5039827;28;21131;-74
2022/01/10 07:33:36;;;;;;;9.73;5.87;;;5.30;99.90;;;;;;5045937;28;20173;-75
2022/01/10 07:36:02;;;;;;;9.15;5.38;;;5.30;99.90;;;;;;5044393;28;20526;-75
2022/01/10 07:38:27;;;;;;;7.30;3.78;;;5.30;99.90;;;;;;5050113;28;20538;-74
2022/01/10 07:40:53;;;;;;;10.07;4.80;;;5.30;99.90;;;;;;5051725;28;20181;-75
2022/01/10 07:43:19;;;;;;;7.10;4.63;;;5.40;99.90;;;;;;5051991;28;20622;-74
2022/01/10 07:45:54;;;;;;;6.05;3.70;;;5.40;99.90;;;;;;5035307;28;20250;-74
2022/01/10 07:48:20;;;;;;;8.90;4.00;;;5.50;99.90;;;;;;5051597;28;20244;-74
2022/01/10 07:50:45;;;;;;;5.72;4.78;;;5.60;99.90;;;;;;5051310;28;20203;-74
2022/01/10 07:53:11;;;;;;;6.70;4.23;;;5.60;99.90;;;;;;5050319;28;20618;-74
2022/01/10 07:55:37;;;;;;;6.63;4.53;;;5.70;99.90;;;;;;5045442;28;20921;-74
2022/01/10 07:58:03;;;;;;;5.60;4.07;;;5.70;99.90;;;;;;5031475;28;20185;-74
2022/01/10 08:00:29;;;;;;;7.00;4.10;;;5.70;99.90;;;;;;5030177;28;20244;-76
2022/01/10 08:02:57;;;;;;;6.85;3.70;;;5.80;99.90;;;;;;5029779;28;20564;-74
2022/01/10 08:05:23;;;;;;;6.82;3.47;;;5.70;99.90;;;;;;5032293;28;20182;-76
2022/01/10 08:07:51;;;;;;;6.28;3.55;;;5.70;99.90;;;;;;5031484;28;20189;-75
2022/01/10 08:10:17;;;;;;;5.95;4.07;;;5.60;99.90;;;;;;5035795;28;20272;-75
2022/01/10 08:12:43;;;;;;;7.97;3.80;;;5.60;99.90;;;;;;5032545;28;20204;-75
2022/01/10 08:15:09;;;;;;;5.90;3.80;;;5.50;99.90;;;;;;5038373;28;20221;-75
2022/01/10 08:17:35;;;;;;;6.55;4.22;;;5.40;99.90;;;;;;5050843;28;20169;-75
2022/01/10 08:20:02;;;;;;;12.43;4.60;;;5.40;99.90;;;;;;5050739;28;20187;-75
2022/01/10 08:22:28;;;;;;;9.02;4.22;;;5.30;99.90;;;;;;5050263;28;20177;-76
2022/01/10 08:24:53;;;;;;;5.37;3.53;;;5.30;99.90;;;;;;5051518;28;20173;-76
2022/01/10 08:27:19;;;;;;;5.60;3.70;;;5.30;99.90;;;;;;5049167;28;20208;-75
2022/01/10 08:29:45;;;;;;;5.63;3.60;;;5.30;99.90;;;;;;5029655;28;20213;-74
2022/01/10 08:32:11;;;;;;;6.40;4.55;;;5.30;99.90;;;;;;5030184;28;20573;-74
2022/01/10 08:34:37;;;;;;;7.37;4.57;;;5.30;99.90;;;;;;5031890;28;20177;-74
2022/01/10 08:37:03;;;;;;;6.18;4.28;;;5.30;99.90;;;;;;5031847;28;20206;-74
2022/01/10 08:39:29;;;;;;;9.27;3.72;;;5.30;99.90;;;;;;5031580;28;20204;-75
2022/01/10 08:41:55;;;;;;;7.30;4.80;;;5.40;99.90;;;;;;5032248;28;20619;-74
2022/01/10 08:44:21;;;;;;;12.00;5.23;;;5.40;99.90;;;;;;5032652;28;20209;-75
2022/01/10 08:46:47;;;;;;;10.50;5.27;;;5.40;99.90;;;;;;5038703;28;20323;-75
2022/01/10 08:49:14;;;;;;;9.47;4.40;;;5.40;99.90;;;;;;5030309;28;20686;-74
2022/01/10 08:51:41;;;;;;;7.20;4.50;;;5.40;99.90;;;;;;5031115;28;20631;-74
2022/01/10 08:54:07;;;;;;;6.65;4.45;;;5.40;99.90;;;;;;5032445;28;20543;-75
2022/01/10 08:56:33;;;;;;;6.82;4.40;;;5.50;99.90;;;;;;5032165;28;20750;-74
2022/01/10 08:59:00;;;;;;;8.37;5.00;;;5.50;99.90;;;;;;5030739;28;20186;-74
2022/01/10 09:01:27;;;;;;;6.28;4.47;;;5.60;99.90;;;;;;5030967;28;20565;-73
2022/01/10 09:03:53;;;;;;;5.80;3.90;;;5.60;99.90;;;;;;5031365;28;20522;-75
2022/01/10 09:06:19;;;;;;;8.45;3.85;;;5.70;99.90;;;;;;5030563;28;20638;-74
2022/01/10 09:08:47;;;;;;;7.93;4.95;;;5.80;99.90;;;;;;5032393;28;20186;-75
2022/01/10 09:11:13;;;;;;;6.07;4.65;;;5.90;99.90;;;;;;5032756;28;20170;-76
2022/01/10 09:13:39;;;;;;;6.55;4.72;;;5.90;99.90;;;;;;5030486;28;20197;-76
2022/01/10 09:16:07;;;;;;;7.35;5.38;;;6.00;99.90;;;;;;5031728;28;20158;-76
2022/01/10 09:18:33;;;;;;;6.45;4.60;;;6.10;99.90;;;;;;5030832;28;20189;-76
2022/01/10 09:20:59;;;;;;;8.88;6.55;;;6.20;99.90;;;;;;5030725;28;20252;-76
2022/01/10 09:23:26;;;;;;;8.50;5.60;;;6.20;99.90;;;;;;5035455;28;20224;-76
2022/01/10 09:25:52;;;;;;;6.82;4.65;;;6.30;99.90;;;;;;5030563;28;20186;-75
2022/01/10 09:28:19;;;;;;;9.50;5.88;;;6.40;99.90;;;;;;5029588;28;20201;-74
2022/01/10 09:30:45;;;;;;;6.90;4.53;;;6.50;99.90;;;;;;5030754;28;20197;-74
2022/01/10 09:33:11;;;;;;;9.13;4.72;;;6.50;99.90;;;;;;5027301;28;20256;-74
2022/01/10 09:35:37;;;;;;;6.63;4.70;;;6.60;99.90;;;;;;5030526;28;20269;-74
2022/01/10 09:38:03;;;;;;;8.90;5.63;;;6.60;99.90;;;;;;5024434;28;20643;-74
2022/01/10 09:41:12;;;;;;;5.93;5.20;;;6.70;99.90;;;;;;5015469;28;20276;-75
2022/01/10 09:44:00;;;;;;;8.75;4.70;;;6.80;99.90;;;;;;5034434;28;20179;-74
2022/01/10 09:46:28;;;;;;;10.30;5.65;;;6.90;99.90;;;;;;5033429;28;20238;-74
2022/01/10 09:48:55;;;;;;;8.27;4.95;;;6.90;99.90;;;;;;5034252;28;20606;-77
2022/01/10 09:51:26;;;;;;;7.63;4.97;;;7.00;99.90;;;;;;5035037;28;20579;-75
2022/01/10 09:53:54;;;;;;;11.45;5.18;;;7.10;99.90;;;;;;5035091;28;20170;-76
2022/01/10 09:56:20;;;;;;;9.07;5.65;;;7.10;99.90;;;;;;5034875;28;20201;-76
2022/01/10 09:58:46;;;;;;;8.77;5.40;;;7.10;99.90;;;;;;5034573;28;20710;-76
2022/01/10 10:01:14;;;;;;;6.73;4.80;;;7.20;99.90;;;;;;5037935;28;20583;-76
2022/01/10 10:03:44;;;;;;;9.45;5.45;;;7.20;99.90;;;;;;5032870;28;20577;-75
2022/01/10 10:06:10;;;;;;;9.70;5.57;;;7.30;99.90;;;;;;5034546;28;20178;-76
2022/01/10 10:08:38;;;;;;;10.33;5.53;;;7.30;99.90;;;;;;5032890;28;20185;-76
2022/01/10 10:11:07;;;;;;;6.68;4.70;;;7.40;99.90;;;;;;5033262;28;20615;-76
2022/01/10 10:13:42;;;;;;;12.10;5.25;;;7.40;99.90;;;;;;5032572;28;20576;-76
2022/01/10 10:16:13;;;;;;;7.57;5.38;;;7.50;99.90;;;;;;5031486;28;20177;-76
2022/01/10 10:18:39;;;;;;;8.15;5.88;;;7.50;99.90;;;;;;5032261;28;20190;-76
2022/01/10 10:21:14;;;;;;;7.95;4.57;;;7.60;99.90;;;;;;5033155;28;20576;-76
2022/01/10 10:23:41;;;;;;;7.00;5.20;;;7.60;99.90;;;;;;5033262;28;20205;-76
2022/01/10 10:26:07;;;;;;;10.40;5.50;;;7.60;99.90;;;;;;5033496;28;20166;-75
2022/01/10 10:28:37;;;;;;;7.93;5.32;;;7.70;99.90;;;;;;5033820;28;20205;-76
2022/01/10 10:31:03;;;;;;;8.77;4.60;;;7.70;99.90;;;;;;5038586;28;20322;-75
2022/01/10 10:33:29;;;;;;;10.68;5.25;;;7.80;99.90;;;;;;5033174;28;20173;-76
2022/01/10 10:36:07;;;;;;;10.37;5.60;;;7.80;99.90;;;;;;5032963;28;20249;-77
2022/01/10 10:38:33;;;;;;;11.52;6.20;;;7.90;99.90;;;;;;5036226;28;20190;-76
2022/01/10 10:41:00;;;;;;;8.43;6.28;;;7.90;99.90;;;;;;5034236;28;20185;-76
2022/01/10 10:43:30;;;;;;;8.40;6.00;;;7.90;99.90;;;;;;5034043;28;20173;-76
2022/01/10 10:46:00;;;;;;;10.13;6.20;;;7.90;99.90;;;;;;5033538;28;20257;-77
2022/01/10 10:48:29;;;;;;;11.82;6.70;;;7.90;99.90;;;;;;5037767;28;20201;-78
2022/01/10 10:50:58;;;;;;;10.30;5.50;;;7.90;99.90;;;;;;5034017;28;20287;-78
2022/01/10 10:53:28;;;;;;;6.78;4.95;;;7.90;99.90;;;;;;5035118;28;20177;-77
2022/01/10 10:55:58;;;;;;;9.35;5.93;;;8.00;99.90;;;;;;5039919;28;20165;-76
2022/01/10 10:58:25;;;;;;;9.45;6.40;;;8.00;99.90;;;;;;5033670;28;20214;-76
2022/01/10 11:00:50;;;;;;;8.80;5.30;;;8.00;99.90;;;;;;5033083;28;20774;-78
2022/01/10 11:03:18;;;;;;;9.17;5.77;;;8.10;99.90;;;;;;5033419;28;20200;-78
2022/01/10 11:05:46;;;;;;;9.15;5.45;;;8.20;99.90;;;;;;5032640;28;20560;-77
2022/01/10 11:08:13;;;;;;;9.93;5.97;;;8.30;99.90;;;;;;5032374;28;20673;-78
2022/01/10 11:10:39;;;;;;;12.35;6.05;;;8.30;99.90;;;;;;5033824;28;20201;-77
2022/01/10 11:13:06;;;;;;;8.40;6.68;;;8.40;99.90;;;;;;5035124;28;20192;-77
2022/01/10 11:15:32;;;;;;;12.05;6.72;;;8.40;99.90;;;;;;5033928;28;20212;-78
2022/01/10 11:18:03;;;;;;;10.45;6.55;;;8.50;99.90;;;;;;5032532;28;20185;-78
2022/01/10 11:20:38;;;;;;;9.75;6.50;;;8.50;99.90;;;;;;5014424;28;20173;-78
2022/01/10 11:23:06;;;;;;;12.82;6.68;;;8.50;99.90;;;;;;5032555;28;20169;-77
2022/01/10 11:25:35;;;;;;;9.07;6.22;;;8.50;99.90;;;;;;5032115;28;20569;-76
2022/01/10 11:28:09;;;;;;;9.18;7.50;;;8.50;99.90;;;;;;5030572;28;20555;-75
2022/01/10 11:30:45;;;;;;;11.95;7.38;;;8.60;99.90;;;;;;5030449;28;20216;-76
2022/01/10 11:33:26;;;;;;;11.70;6.93;;;8.70;99.90;;;;;;5032376;28;20168;-76
2022/01/10 11:35:58;;;;;;;10.68;7.22;;;8.70;99.90;;;;;;5032030;28;20180;-75
2022/01/10 11:38:26;;;;;;;10.35;6.72;;;8.70;99.90;;;;;;5030805;28;20654;-76
2022/01/10 11:40:57;;;;;;;10.60;6.65;;;8.70;99.90;;;;;;5031391;28;20598;-75
2022/01/10 11:43:28;;;;;;;9.55;7.28;;;8.60;99.90;;;;;;5030531;28;20265;-75
2022/01/10 11:46:08;;;;;;;12.52;8.18;;;8.70;99.90;;;;;;5032036;28;20173;-75
2022/01/10 11:48:48;;;;;;;10.00;7.45;;;8.70;99.90;;;;;;5030512;28;20201;-75
2022/01/10 11:51:16;;;;;;;10.43;7.10;;;8.60;99.90;;;;;;5033645;28;20193;-76
2022/01/10 11:53:44;;;;;;;8.60;6.63;;;8.60;99.90;;;;;;5031802;28;20170;-75
2022/01/10 11:56:30;;;;;;;16.35;9.23;;;8.60;99.90;;;;;;5031481;28;20539;-76
2022/01/10 11:59:06;;;;;;;11.50;8.38;;;8.50;99.90;;;;;;5029795;28;20216;-76
2022/01/10 12:01:34;;;;;;;11.13;7.82;;;8.50;99.90;;;;;;5036772;28;20174;-76
2022/01/10 12:04:00;;;;;;;12.63;8.50;;;8.40;99.90;;;;;;5028604;28;20165;-76
2022/01/10 12:06:26;;;;;;;10.65;9.55;;;8.40;99.90;;;;;;5030711;28;20566;-76
2022/01/10 12:08:57;;;;;;;14.45;9.00;;;8.30;99.90;;;;;;5031592;28;20192;-75
2022/01/10 12:11:24;;;;;;;16.95;9.32;;;8.30;99.90;;;;;;5030878;28;20242;-75
2022/01/10 12:13:55;;;;;;;13.30;9.15;;;8.30;99.90;;;;;;5031443;28;20224;-74
2022/01/10 12:16:22;;;;;;;14.25;9.35;;;8.20;99.90;;;;;;5011471;28;20193;-74
2022/01/10 12:18:48;;;;;;;15.93;9.45;;;8.20;99.90;;;;;;5011615;28;20226;-75
2022/01/10 12:21:14;;;;;;;12.02;8.55;;;8.20;99.90;;;;;;5025257;28;20170;-76
2022/01/10 12:23:41;;;;;;;16.10;9.35;;;8.10;99.90;;;;;;5030757;28;20512;-76
2022/01/10 12:26:07;;;;;;;10.65;7.63;;;8.20;99.90;;;;;;5032972;28;20592;-77
2022/01/10 12:28:33;;;;;;;14.38;8.32;;;8.20;99.90;;;;;;5033734;28;20577;-77
2022/01/10 12:31:02;;;;;;;13.00;8.40;;;8.20;99.90;;;;;;5029983;28;20232;-77
2022/01/10 12:33:32;;;;;;;12.45;9.05;;;8.30;99.90;;;;;;5031911;28;20165;-76
2022/01/10 12:35:57;;;;;;;14.82;9.32;;;8.20;99.90;;;;;;5030020;28;20170;-76
2022/01/10 12:38:24;;;;;;;11.63;8.73;;;8.20;99.90;;;;;;5032213;28;20717;-77
2022/01/10 12:40:50;;;;;;;23.10;16.15;;;8.20;99.90;;;;;;5031968;28;21116;-77
2022/01/10 12:43:16;;;;;;;24.42;13.32;;;8.30;99.90;;;;;;5032235;28;20537;-76
2022/01/10 12:45:42;;;;;;;18.73;10.03;;;8.30;99.90;;;;;;5031327;28;20209;-77
2022/01/10 12:48:09;;;;;;;17.57;10.00;;;8.30;99.90;;;;;;5033044;28;20228;-77
2022/01/10 12:50:35;;;;;;;15.68;9.80;;;8.30;99.90;;;;;;5031611;28;20881;-77
2022/01/10 12:53:01;;;;;;;15.60;9.43;;;8.40;99.90;;;;;;5034300;28;20180;-77
2022/01/10 12:55:27;;;;;;;14.17;9.40;;;8.30;99.90;;;;;;5031383;28;20166;-77
2022/01/10 12:57:53;;;;;;;12.68;9.15;;;8.30;99.90;;;;;;5031343;28;20189;-76
2022/01/10 13:00:19;;;;;;;12.20;7.73;;;8.30;99.90;;;;;;5030798;28;20534;-77
2022/01/10 13:02:46;;;;;;;16.38;9.45;;;8.30;99.90;;;;;;5029983;28;20173;-77
2022/01/10 13:05:14;;;;;;;12.50;7.97;;;8.30;99.90;;;;;;5034051;28;20247;-75
2022/01/10 13:07:43;;;;;;;12.77;8.23;;;8.30;99.90;;;;;;5030477;28;20178;-75
2022/01/10 13:10:18;;;;;;;11.27;8.45;;;8.30;99.90;;;;;;5030547;28;20291;-76